createdAt,value
2023-03-20T10:16:41.289Z,17.90
2023-03-20T10:19:16.441Z,18.00
2023-03-20T10:21:45.542Z,18.20
2023-03-20T10:24:32.490Z,18.50
2023-03-20T10:27:03.791Z,18.20
2023-03-20T10:29:39.078Z,18.20
2023-03-20T10:32:21.049Z,17.70
2023-03-20T10:34:57.676Z,18.30
2023-03-20T10:37:49.340Z,18.30
2023-03-20T10:40:26.761Z,18.20
2023-03-20T10:42:55.914Z,18.20
2023-03-20T10:45:38.200Z,18.20
2023-03-20T10:48:07.878Z,18.10
2023-03-20T10:50:43.376Z,18.10
2023-03-20T10:53:18.872Z,18.10
2023-03-20T10:55:46.076Z,18.10
2023-03-20T10:58:21.734Z,18.00
2023-03-20T11:00:48.649Z,18.00
2023-03-20T11:03:28.714Z,18.00
2023-03-20T11:06:14.113Z,18.00
2023-03-20T11:08:41.970Z,17.90
2023-03-20T11:11:09.355Z,18.00
2023-03-20T11:13:41.468Z,18.00
2023-03-20T11:16:16.861Z,17.90
2023-03-20T11:18:43.435Z,17.90
2023-03-20T11:21:21.634Z,18.20
2023-03-20T11:23:48.388Z,17.90
2023-03-20T11:26:19.969Z,17.90
2023-03-20T11:28:57.680Z,17.90
2023-03-20T11:31:27.347Z,17.90
2023-03-20T11:34:22.334Z,17.90
2023-03-20T11:37:09.294Z,17.90
2023-03-20T11:39:38.031Z,17.90
2023-03-20T11:42:21.335Z,17.90
2023-03-20T11:44:56.531Z,17.80
2023-03-20T11:47:25.128Z,17.90
2023-03-20T11:49:56.108Z,17.90
2023-03-20T11:52:24.990Z,17.80
2023-03-20T11:54:56.708Z,17.80
2023-03-20T11:57:34.164Z,17.80
2023-03-20T12:00:05.991Z,17.90
2023-03-20T12:02:34.875Z,17.80
2023-03-20T12:05:01.841Z,17.80
2023-03-20T12:07:33.756Z,17.80
2023-03-20T12:10:02.549Z,17.90
2023-03-20T12:12:35.955Z,17.80
2023-03-20T12:15:10.145Z,17.90
2023-03-20T12:18:10.292Z,17.90
2023-03-20T12:20:42.734Z,17.90
2023-03-20T12:23:09.431Z,18.10
2023-03-20T12:25:46.072Z,18.10
2023-03-20T12:28:17.869Z,18.20
2023-03-20T12:30:53.610Z,18.20
2023-03-20T12:33:38.653Z,18.30
2023-03-20T12:36:10.148Z,18.30
2023-03-20T12:38:37.109Z,18.20
2023-03-20T12:41:23.936Z,18.20
2023-03-20T12:44:01.784Z,18.10
2023-03-20T12:46:37.294Z,18.10
2023-03-20T12:49:08.834Z,18.10
2023-03-20T12:51:41.153Z,18.00
2023-03-20T12:54:07.692Z,18.10
2023-03-20T12:56:53.619Z,18.10
2023-03-20T12:59:26.386Z,18.10
2023-03-20T13:02:03.552Z,18.10
2023-03-20T13:04:36.356Z,18.00
2023-03-20T13:07:07.641Z,18.00
2023-03-20T13:09:53.219Z,18.00
2023-03-20T13:12:32.771Z,18.00
2023-03-20T13:15:02.536Z,18.00
2023-03-20T13:17:37.259Z,18.00
2023-03-20T13:20:22.543Z,18.00
2023-03-20T13:22:52.131Z,18.00
2023-03-20T13:25:18.674Z,18.00
2023-03-20T13:27:51.678Z,17.90
2023-03-20T13:30:30.276Z,18.00
2023-03-20T13:33:09.143Z,18.00
2023-03-20T13:35:43.451Z,18.00
2023-03-20T13:38:14.792Z,18.00
2023-03-20T13:40:43.978Z,18.00
2023-03-20T13:43:19.506Z,17.90
2023-03-20T13:45:47.708Z,17.90
2023-03-20T13:48:23.632Z,17.90
2023-03-20T13:50:56.066Z,17.90
2023-03-20T13:53:30.414Z,17.90
2023-03-20T13:56:05.757Z,18.00
2023-03-20T13:58:51.124Z,17.90
2023-03-20T14:01:23.323Z,17.90
2023-03-20T14:03:50.726Z,18.00
2023-03-20T14:06:19.018Z,18.00
2023-03-20T14:09:03.808Z,17.90
2023-03-20T14:11:35.458Z,17.90
2023-03-20T14:14:12.950Z,17.90
2023-03-20T14:16:39.903Z,17.90
2023-03-20T14:19:06.537Z,17.90
2023-03-20T14:21:34.151Z,17.90
2023-03-20T14:24:02.573Z,17.90
2023-03-20T14:26:31.330Z,17.90
2023-03-20T14:29:00.380Z,17.90
2023-03-20T14:31:30.487Z,18.00
2023-03-20T14:34:06.094Z,18.00
2023-03-20T14:36:43.940Z,18.00
2023-03-20T14:39:28.682Z,18.00
2023-03-20T14:42:14.219Z,18.10
2023-03-20T14:44:59.916Z,18.20
2023-03-20T14:47:34.099Z,18.20
2023-03-20T14:50:10.530Z,18.20
2023-03-20T14:52:42.832Z,18.20
2023-03-20T14:55:29.016Z,18.20
2023-03-20T14:57:57.315Z,18.20
2023-03-20T15:00:28.185Z,18.10
2023-03-20T15:03:03.753Z,18.10
2023-03-20T15:05:32.259Z,18.10
2023-03-20T15:08:03.439Z,18.10
2023-03-20T15:10:30.345Z,18.10
2023-03-20T15:12:58.112Z,18.10
2023-03-20T15:15:26.433Z,18.10
2023-03-20T15:17:53.044Z,18.00
2023-03-20T15:20:28.817Z,18.20
2023-03-20T15:22:57.731Z,18.00
2023-03-20T15:25:28.571Z,18.10
2023-03-20T15:27:55.327Z,18.00
2023-03-20T15:30:22.390Z,18.10
2023-03-20T15:32:49.861Z,18.00
2023-03-20T15:35:17.681Z,18.10
2023-03-20T15:37:45.852Z,18.00
2023-03-20T15:40:14.013Z,18.00
2023-03-20T15:42:40.761Z,18.00
2023-03-20T15:45:21.097Z,18.00
2023-03-20T15:47:47.653Z,18.00
2023-03-20T15:50:15.719Z,18.00
2023-03-20T15:52:43.651Z,18.10
2023-03-20T15:55:20.706Z,18.10
2023-03-20T15:57:50.196Z,18.00
2023-03-20T16:00:29.056Z,18.00
2023-03-20T16:02:55.832Z,18.00
2023-03-20T16:05:24.887Z,18.00
2023-03-20T16:07:51.477Z,18.00
2023-03-20T16:10:27.702Z,18.00
2023-03-20T16:12:55.237Z,17.90
2023-03-20T16:15:27.570Z,18.00
2023-03-20T16:17:56.253Z,17.90
2023-03-20T16:20:23.939Z,18.00
2023-03-20T16:22:51.723Z,18.00
2023-03-20T16:25:18.433Z,17.90
2023-03-20T16:27:46.344Z,18.10
2023-03-20T16:30:33.286Z,18.10
2023-03-20T16:33:01.213Z,18.20
2023-03-20T16:35:34.524Z,18.20
2023-03-20T16:38:02.605Z,18.40
2023-03-20T16:40:33.877Z,18.20
2023-03-20T16:43:06.551Z,18.20
2023-03-20T16:45:34.134Z,18.20
2023-03-20T16:48:09.892Z,18.20
2023-03-20T16:50:48.271Z,18.10
2023-03-20T16:53:16.459Z,18.10
2023-03-20T16:55:44.853Z,18.10
2023-03-20T16:58:16.090Z,18.10
2023-03-20T17:00:47.059Z,18.10
2023-03-20T17:03:15.459Z,18.10
2023-03-20T17:05:50.123Z,18.10
2023-03-20T17:08:23.692Z,18.10
2023-03-20T17:10:52.798Z,18.10
2023-03-20T17:13:19.393Z,18.50
2023-03-20T17:15:46.102Z,18.00
2023-03-20T17:18:13.806Z,18.00
2023-03-20T17:20:41.225Z,17.90
2023-03-20T17:23:14.929Z,18.00
2023-03-20T17:25:41.713Z,18.00
2023-03-20T17:28:11.742Z,18.00
2023-03-20T17:30:38.838Z,18.00
2023-03-20T17:33:11.453Z,18.00
2023-03-20T17:35:38.081Z,18.00
2023-03-20T17:38:04.672Z,18.00
2023-03-20T17:40:31.254Z,18.00
2023-03-20T17:42:57.813Z,18.00
2023-03-20T17:45:24.711Z,18.00
2023-03-20T17:47:52.079Z,18.00
2023-03-20T17:50:24.502Z,18.00
2023-03-20T17:52:51.245Z,18.10
2023-03-20T17:55:17.881Z,18.10
2023-03-20T17:57:44.570Z,18.20
2023-03-20T18:00:21.781Z,18.20
2023-03-20T18:02:48.398Z,18.30
2023-03-20T18:05:15.372Z,18.30
2023-03-20T18:07:42.079Z,18.30
2023-03-20T18:10:19.806Z,18.20
2023-03-20T18:12:46.496Z,18.20
2023-03-20T18:15:13.046Z,18.20
2023-03-20T18:17:39.647Z,18.10
2023-03-20T18:20:06.794Z,18.10
2023-03-20T18:22:33.586Z,18.10
2023-03-20T18:25:00.344Z,18.10
2023-03-20T18:27:26.978Z,18.10
2023-03-20T18:29:53.551Z,18.10
2023-03-20T18:32:20.296Z,18.00
2023-03-20T18:34:46.908Z,18.00
2023-03-20T18:37:14.093Z,18.00
2023-03-20T18:39:40.900Z,18.10
2023-03-20T18:42:07.894Z,18.10
2023-03-20T18:44:34.454Z,18.20
2023-03-20T18:47:01.022Z,18.30
2023-03-20T18:49:27.632Z,18.40
2023-03-20T18:51:54.383Z,18.40
2023-03-20T18:54:21.001Z,18.40
2023-03-20T18:56:49.697Z,18.50
2023-03-20T18:59:16.451Z,18.50
2023-03-20T19:01:43.116Z,18.50
2023-03-20T19:04:09.796Z,18.50
2023-03-20T19:06:36.405Z,18.50
2023-03-20T19:09:04.878Z,18.60
2023-03-20T19:11:31.429Z,18.60
2023-03-20T19:13:58.003Z,18.60
2023-03-20T19:16:24.697Z,18.60
2023-03-20T19:18:52.528Z,18.60
2023-03-20T19:21:19.169Z,18.60
2023-03-20T19:23:45.857Z,18.50
2023-03-20T19:26:17.599Z,18.40
2023-03-20T19:28:44.770Z,18.40
2023-03-20T19:31:11.845Z,18.40
2023-03-20T19:33:38.931Z,18.30
2023-03-20T19:36:06.653Z,18.30
2023-03-20T19:38:33.454Z,18.20
2023-03-20T19:41:00.316Z,18.20
2023-03-20T19:43:29.102Z,18.20
2023-03-20T19:45:58.565Z,18.20
2023-03-20T19:48:27.217Z,18.10
2023-03-20T19:50:55.366Z,18.10
2023-03-20T19:53:24.944Z,18.10
2023-03-20T19:55:51.525Z,18.00
2023-03-20T19:58:18.084Z,18.00
2023-03-20T20:01:01.005Z,18.00
2023-03-20T20:03:27.737Z,18.00
2023-03-20T20:05:54.842Z,17.90
2023-03-20T20:08:41.333Z,18.00
2023-03-20T20:11:11.780Z,18.00
2023-03-20T20:13:57.291Z,18.00
2023-03-20T20:16:25.285Z,17.80
2023-03-20T20:18:51.872Z,17.90
2023-03-20T20:24:05.321Z,17.90
2023-03-20T20:26:38.559Z,17.90
2023-03-20T20:29:07.030Z,17.90
2023-03-20T20:31:33.828Z,18.00
2023-03-20T20:34:51.167Z,17.90
2023-03-20T20:37:42.766Z,17.90
2023-03-20T20:39:34.000Z,17.90
2023-03-20T20:42:01.080Z,17.90
2023-03-20T20:44:27.771Z,17.90
2023-03-20T20:46:54.421Z,17.90
2023-03-20T20:49:21.239Z,17.90
2023-03-20T20:51:48.152Z,17.80
2023-03-20T20:54:15.381Z,17.80
2023-03-20T20:56:41.950Z,17.80
2023-03-20T20:59:08.732Z,17.80
2023-03-20T21:01:36.031Z,17.80
2023-03-20T21:04:02.701Z,17.80
2023-03-20T21:06:54.215Z,17.80
2023-03-20T21:09:16.318Z,17.80
2023-03-20T21:11:42.897Z,17.90
2023-03-20T21:14:09.466Z,18.00
2023-03-20T21:16:36.039Z,18.00
2023-03-20T21:19:02.677Z,18.00
2023-03-20T21:21:30.271Z,18.10
2023-03-20T21:23:57.050Z,18.10
2023-03-20T21:26:23.698Z,18.10
2023-03-20T21:28:50.791Z,18.10
2023-03-20T21:31:30.871Z,18.10
2023-03-20T21:33:57.822Z,18.00
2023-03-20T21:36:24.574Z,18.00
2023-03-20T21:39:07.458Z,18.00
2023-03-20T21:41:36.365Z,18.00
2023-03-20T21:44:03.853Z,18.00
2023-03-20T21:47:06.966Z,17.80
2023-03-20T21:52:53.842Z,17.90
2023-03-20T21:55:22.326Z,17.90
2023-03-20T21:58:17.675Z,17.90
2023-03-20T22:03:18.365Z,18.40
2023-03-20T22:06:29.648Z,17.90
2023-03-20T22:12:18.112Z,17.80
2023-03-20T22:15:03.750Z,17.80
2023-03-20T22:23:21.664Z,17.80
2023-03-20T22:31:48.532Z,17.80
2023-03-20T22:34:25.644Z,17.80
2023-03-20T22:40:02.227Z,17.80
2023-03-20T22:45:00.508Z,17.70
2023-03-20T22:47:29.257Z,17.70
2023-03-20T22:49:55.810Z,17.70
2023-03-20T22:52:34.879Z,17.70
2023-03-20T22:55:09.691Z,17.70
2023-03-20T22:57:45.678Z,17.70
2023-03-20T23:00:17.625Z,17.70
2023-03-20T23:02:44.203Z,17.70
2023-03-20T23:05:10.849Z,17.80
2023-03-20T23:07:37.661Z,17.70
2023-03-20T23:10:05.418Z,17.70
2023-03-20T23:12:32.385Z,17.70
2023-03-20T23:14:58.981Z,17.70
2023-03-20T23:17:27.005Z,17.70
2023-03-20T23:20:04.956Z,17.80
2023-03-20T23:22:35.581Z,17.70
2023-03-20T23:25:13.204Z,17.70
2023-03-20T23:27:43.172Z,17.70
2023-03-20T23:30:10.689Z,17.70
2023-03-20T23:32:38.012Z,17.70
2023-03-20T23:35:05.722Z,17.70
2023-03-20T23:37:32.884Z,17.70
2023-03-20T23:39:59.419Z,17.70
2023-03-20T23:42:30.582Z,17.70
2023-03-20T23:45:04.432Z,17.70
2023-03-20T23:47:44.382Z,17.80
2023-03-20T23:50:17.272Z,17.90
2023-03-20T23:52:57.070Z,17.90
2023-03-20T23:55:25.742Z,17.90
2023-03-20T23:57:52.315Z,17.90
